Time;durP1;ratioP1;P1;durP2;ratioP2;P2;SDS_P1;SDS_P2;PMS_P1;PMS_P2;Temp;Humidity;BMP_temperature;BMP_pressure;BME280_temperature;BME280_humidity;BME280_pressure;Samples;Min_cycle;Max_cycle;Signal;HPM_P1;HPM_P2
2021/11/09 00:02:31;;;;;;;23.30;6.18;;;2.90;99.90;;;;;;20904395;28;20033;-79
2021/11/09 00:12:42;;;;;;;13.65;6.07;;;2.90;99.90;;;;;;20910862;28;20654;-79
2021/11/09 00:22:43;;;;;;;26.92;6.60;;;3.00;99.90;;;;;;20907919;28;20037;-79
2021/11/09 00:32:44;;;;;;;24.63;5.63;;;3.00;99.90;;;;;;20891073;28;20052;-79
2021/11/09 00:42:45;;;;;;;16.17;6.00;;;2.80;99.90;;;;;;20897622;28;20120;-79
2021/11/09 00:52:46;;;;;;;14.50;5.60;;;2.80;99.90;;;;;;20877176;28;20029;-79
2021/11/09 01:02:49;;;;;;;14.25;6.07;;;2.50;99.90;;;;;;20860282;28;20055;-79
2021/11/09 01:12:50;;;;;;;13.90;5.70;;;2.70;99.90;;;;;;20891618;28;20029;-79
2021/11/09 01:22:53;;;;;;;14.80;5.82;;;2.80;99.90;;;;;;20897588;28;20033;-79
2021/11/09 01:32:54;;;;;;;20.92;6.22;;;2.40;99.90;;;;;;20882484;28;20096;-79
2021/11/09 01:42:58;;;;;;;16.73;6.22;;;2.20;99.90;;;;;;20873242;28;20036;-77
2021/11/09 01:52:59;;;;;;;17.45;5.72;;;2.50;99.90;;;;;;20897695;28;20092;-78
2021/11/09 02:03:00;;;;;;;18.02;6.60;;;2.30;99.90;;;;;;20896773;28;20067;-79
2021/11/09 02:13:01;;;;;;;14.80;5.50;;;2.50;99.90;;;;;;20892745;28;20034;-76
2021/11/09 02:23:03;;;;;;;14.25;5.05;;;2.50;99.90;;;;;;20866939;28;20033;-79
2021/11/09 02:33:04;;;;;;;15.25;5.18;;;2.40;99.90;;;;;;20887021;28;20449;-79
2021/11/09 02:43:09;;;;;;;13.82;4.70;;;2.40;99.90;;;;;;20872711;28;20039;-79
2021/11/09 03:03:24;;;;;;;14.43;5.75;;;2.60;99.90;;;;;;20886955;28;20075;-79
2021/11/09 03:13:26;;;;;;;19.13;5.90;;;2.60;99.90;;;;;;20930378;28;20025;-79
2021/11/09 03:54:14;;;;;;;13.45;4.70;;;2.60;99.90;;;;;;20993641;28;20044;-79
2021/11/09 04:04:52;;;;;;;12.95;4.80;;;2.60;99.90;;;;;;20900907;28;20033;-78
2021/11/09 04:15:32;;;;;;;15.48;4.80;;;2.50;99.90;;;;;;20851639;28;20041;-79
2021/11/09 05:16:09;;;;;;;12.88;3.65;;;2.00;99.90;;;;;;20836085;28;20048;-78
2021/11/09 05:26:10;;;;;;;13.65;3.65;;;2.20;99.90;;;;;;20832637;28;20626;-77
2021/11/09 05:36:11;;;;;;;8.90;4.32;;;2.30;99.90;;;;;;20833989;28;20628;-78
2021/11/09 05:46:12;;;;;;;9.48;4.20;;;2.30;99.90;;;;;;20839542;28;20045;-79
2021/11/09 05:56:13;;;;;;;8.68;4.07;;;2.20;99.90;;;;;;20897817;28;20052;-79
2021/11/09 06:06:14;;;;;;;11.30;4.63;;;2.10;99.90;;;;;;20888385;28;20045;-79
2021/11/09 06:16:15;;;;;;;14.52;4.80;;;2.10;99.90;;;;;;20946166;28;20547;-79
2021/11/09 06:26:17;;;;;;;11.43;4.55;;;1.90;99.90;;;;;;20918204;28;20040;-79
2021/11/09 06:36:18;;;;;;;15.43;4.40;;;1.70;99.90;;;;;;20904703;28;20040;-79
2021/11/09 06:46:18;;;;;;;19.95;5.32;;;1.70;99.90;;;;;;20895700;28;20472;-80
2021/11/09 06:56:19;;;;;;;15.35;5.10;;;2.10;99.90;;;;;;20878092;28;20033;-81
2021/11/09 07:06:20;;;;;;;19.77;5.65;;;2.00;99.90;;;;;;20892726;28;20033;-80
2021/11/09 07:16:23;;;;;;;11.98;4.88;;;2.20;99.90;;;;;;20811465;28;20029;-80
2021/11/09 07:26:25;;;;;;;11.30;4.32;;;2.80;99.90;;;;;;20810722;28;20049;-78
2021/11/09 07:36:26;;;;;;;13.23;5.28;;;3.50;99.90;;;;;;20813766;28;20026;-80
2021/11/09 07:46:28;;;;;;;16.67;5.53;;;4.50;99.90;;;;;;20811019;28;20053;-79
2021/11/09 07:56:34;;;;;;;16.10;5.07;;;4.50;99.90;;;;;;20809837;28;20034;-79
2021/11/09 08:06:47;;;;;;;20.73;6.25;;;3.90;99.90;;;;;;20812504;28;20438;-77
2021/11/09 08:16:48;;;;;;;14.77;5.68;;;4.20;99.90;;;;;;20884983;28;20069;-79
2021/11/09 08:26:51;;;;;;;13.65;5.38;;;4.70;99.90;;;;;;20888136;28;20039;-78
2021/11/09 08:36:53;;;;;;;10.88;5.38;;;6.70;99.90;;;;;;20907323;28;20045;-79
2021/11/09 08:46:58;;;;;;;;;;;7.10;99.90;;;;;;20909635;28;20025;-79
2021/11/09 09:07:20;;;;;;;10.57;4.55;;;9.80;99.90;;;;;;20899741;28;20040;-79
2021/11/09 09:17:21;;;;;;;10.50;4.77;;;10.40;99.90;;;;;;20862491;28;1233511;-79
2021/11/09 09:58:07;;;;;;;12.77;4.68;;;11.40;99.90;;;;;;20907098;28;20072;-81
2021/11/09 10:08:16;;;;;;;9.02;4.70;;;12.00;99.90;;;;;;20905654;28;20041;-80
2021/11/09 10:18:19;;;;;;;11.45;4.22;;;11.80;99.90;;;;;;20884301;28;20042;-80
2021/11/09 10:28:23;;;;;;;15.15;5.20;;;12.40;99.90;;;;;;20886026;28;20029;-80
2021/11/09 10:38:30;;;;;;;15.98;5.75;;;12.20;99.90;;;;;;20901543;28;20036;-80
2021/11/09 10:48:33;;;;;;;10.88;5.90;;;12.20;99.90;;;;;;20883940;28;20073;-80
2021/11/09 11:08:37;;;;;;;10.52;4.53;;;13.40;99.90;;;;;;20865100;28;20046;-81
2021/11/09 11:18:54;;;;;;;11.32;5.05;;;13.50;99.90;;;;;;20861445;28;20037;-80
2021/11/09 11:28:56;;;;;;;10.27;3.45;;;13.80;99.90;;;;;;20888890;28;20037;-79
2021/11/09 11:39:03;;;;;;;7.97;3.90;;;14.90;99.90;;;;;;20858418;28;20033;-82
2021/11/09 11:49:12;;;;;;;23.17;12.02;;;14.40;99.90;;;;;;20883713;28;20037;-82
2021/11/09 11:59:21;;;;;;;15.15;6.55;;;14.40;99.90;;;;;;20886451;28;20535;-80
2021/11/09 12:09:32;;;;;;;12.93;5.20;;;14.70;99.90;;;;;;20893907;28;20048;-81
2021/11/09 12:19:35;;;;;;;13.55;6.15;;;13.70;99.90;;;;;;20944557;28;20037;-80
2021/11/09 12:29:36;;;;;;;12.05;5.85;;;14.60;99.90;;;;;;20948365;28;20029;-82
2021/11/09 12:39:37;;;;;;;11.00;5.50;;;14.20;99.90;;;;;;20938671;28;20407;-82
2021/11/09 12:49:40;;;;;;;10.70;4.97;;;14.90;99.90;;;;;;20969484;28;20068;-80
2021/11/09 13:09:59;;;;;;;9.32;4.93;;;14.70;99.90;;;;;;20987319;28;20045;-80
2021/11/09 13:20:34;;;;;;;8.63;4.35;;;14.30;99.90;;;;;;20958558;28;20032;-80
2021/11/09 13:30:35;;;;;;;22.05;11.35;;;14.20;99.90;;;;;;20949992;28;20029;-81
2021/11/09 13:40:47;;;;;;;11.90;5.77;;;13.60;99.90;;;;;;20973292;28;20025;-80
2021/11/09 13:50:51;;;;;;;11.15;5.00;;;14.10;99.90;;;;;;20968687;28;20118;-81
2021/11/09 14:00:57;;;;;;;9.57;5.35;;;13.40;99.90;;;;;;20927322;28;20064;-82
2021/11/09 14:21:02;;;;;;;11.07;5.03;;;13.80;99.90;;;;;;20948402;28;20029;-80
2021/11/09 14:31:35;;;;;;;11.80;4.80;;;12.90;99.90;;;;;;20935349;28;20507;-80
2021/11/09 14:41:52;;;;;;;6.73;4.33;;;13.70;99.90;;;;;;20932322;28;20377;-80
2021/11/09 14:51:57;;;;;;;9.73;4.93;;;13.20;99.90;;;;;;20951684;28;20033;-80
2021/11/09 15:02:02;;;;;;;8.82;4.97;;;13.20;99.90;;;;;;20932905;28;20052;-79
2021/11/09 15:12:24;;;;;;;12.90;5.50;;;13.00;99.90;;;;;;20934474;28;20044;-80
2021/11/09 15:32:44;;;;;;;21.58;10.30;;;12.20;99.90;;;;;;20965999;28;20028;-81
2021/11/09 15:42:45;;;;;;;9.53;5.53;;;11.70;99.90;;;;;;20967940;28;20048;-82
2021/11/09 15:52:46;;;;;;;13.90;6.13;;;9.80;99.90;;;;;;20948843;28;20049;-81
2021/11/09 16:02:47;;;;;;;14.47;7.70;;;9.30;99.90;;;;;;20932664;28;20491;-80
2021/11/09 16:12:49;;;;;;;13.80;5.45;;;9.00;99.90;;;;;;20953857;28;20049;-80
2021/11/09 16:22:50;;;;;;;11.00;6.20;;;8.00;99.90;;;;;;20826321;28;20033;-81
2021/11/09 16:32:57;;;;;;;12.05;6.72;;;7.30;99.90;;;;;;20825198;28;20060;-81
2021/11/09 16:43:06;;;;;;;16.58;7.30;;;6.40;99.90;;;;;;20846673;28;20033;-81
2021/11/09 16:53:09;;;;;;;15.07;7.63;;;6.40;99.90;;;;;;20836476;28;20036;-79
2021/11/09 18:25:34;;;;;;;12.88;7.03;;;5.40;99.90;;;;;;20771872;28;20033;-79
2021/11/09 18:35:38;;;;;;;15.88;6.13;;;5.50;99.90;;;;;;20773400;28;20026;-80
2021/11/09 18:45:41;;;;;;;20.63;10.10;;;5.20;99.90;;;;;;20799705;28;20093;-79
2021/11/09 18:55:42;;;;;;;12.68;5.57;;;5.40;99.90;;;;;;20787056;28;20026;-77
2021/11/09 19:05:43;;;;;;;15.17;7.07;;;5.10;99.90;;;;;;20773332;28;20045;-80
2021/11/09 19:15:45;;;;;;;14.70;6.65;;;5.20;99.90;;;;;;20757214;28;20060;-80
2021/11/09 19:25:46;;;;;;;18.48;6.60;;;5.10;99.90;;;;;;20777800;28;20033;-80
2021/11/09 19:35:47;;;;;;;18.35;6.57;;;5.10;99.90;;;;;;20809414;28;20029;-80
2021/11/09 19:45:49;;;;;;;12.45;5.53;;;5.10;99.90;;;;;;20775540;28;20101;-78
2021/11/09 19:55:50;;;;;;;16.45;6.55;;;4.80;99.90;;;;;;20769621;28;20037;-79
2021/11/09 20:05:52;;;;;;;;;;;4.90;99.90;;;;;;20793280;28;20033;-79
2021/11/09 20:15:55;;;;;;;26.05;10.73;;;4.90;99.90;;;;;;20801597;28;20515;-79
2021/11/09 20:25:56;;;;;;;10.93;6.57;;;4.10;99.90;;;;;;20811629;28;20108;-79
2021/11/09 20:35:57;;;;;;;;;;;3.50;99.90;;;;;;20805889;28;20080;-78
2021/11/09 20:45:58;;;;;;;17.05;7.40;;;4.10;99.90;;;;;;20826873;28;21197;-78
2021/11/09 20:56:05;;;;;;;;;;;4.30;99.90;;;;;;20836752;28;20056;-78
2021/11/09 21:06:06;;;;;;;13.38;6.93;;;4.40;99.90;;;;;;20821262;28;19913;-77
2021/11/09 21:26:29;;;;;;;23.50;8.18;;;4.40;99.90;;;;;;20855879;28;20052;-78
2021/11/09 21:36:31;;;;;;;17.67;8.95;;;4.30;99.90;;;;;;20829484;28;20033;-81
2021/11/09 21:46:32;;;;;;;;;;;3.80;99.90;;;;;;20805988;28;20030;-81
2021/11/09 21:56:34;;;;;;;25.27;7.87;;;4.30;99.90;;;;;;20805508;28;19917;-79
2021/11/09 22:06:36;;;;;;;15.35;6.18;;;4.50;99.90;;;;;;20791269;28;20734;-79
2021/11/09 22:16:37;;;;;;;22.38;10.57;;;4.30;99.90;;;;;;20807264;28;20349;-80
2021/11/09 22:26:37;;;;;;;;;;;4.10;99.90;;;;;;20846762;28;20069;-80
2021/11/09 22:36:38;;;;;;;22.08;11.48;;;3.90;99.90;;;;;;20842955;28;19940;-78
2021/11/09 22:46:39;;;;;;;;;;;3.80;99.90;;;;;;20840816;28;20033;-79
2021/11/09 22:56:40;;;;;;;22.77;11.20;;;3.70;99.90;;;;;;20856068;28;19913;-80
2021/11/09 23:06:41;;;;;;;;;;;3.80;99.90;;;;;;20883420;28;20026;-80
2021/11/09 23:16:42;;;;;;;23.98;11.40;;;3.70;99.90;;;;;;20880988;28;20027;-79
2021/11/09 23:26:42;;;;;;;;;;;3.70;99.90;;;;;;20897569;28;20034;-79
2021/11/09 23:36:43;;;;;;;19.95;10.23;;;3.70;99.90;;;;;;20897907;28;19963;-79
2021/11/09 23:46:44;;;;;;;;;;;3.50;99.90;;;;;;20896035;28;20034;-80
2021/11/09 23:56:48;;;;;;;28.67;13.57;;;3.30;99.90;;;;;;20913151;28;20402;-80
